Time;durP1;ratioP1;P1;durP2;ratioP2;P2;SDS_P1;SDS_P2;PMS_P1;PMS_P2;Temp;Humidity;BMP_temperature;BMP_pressure;BME280_temperature;BME280_humidity;BME280_pressure;Samples;Min_cycle;Max_cycle;Signal;HPM_P1;HPM_P2
2022/06/26 00:00:29;;;;;;;8.40;7.57;;;;;;;23.35;56.03;101074.50;5034422;28;20038;-66
2022/06/26 00:03:00;;;;;;;10.57;8.15;;;;;;;23.37;55.81;101076.00;5034353;28;20048;-66
2022/06/26 00:05:27;;;;;;;9.25;8.35;;;;;;;23.36;56.05;101085.28;5034285;28;20045;-65
2022/06/26 00:07:54;;;;;;;9.50;8.23;;;;;;;23.35;56.16;101088.19;5034178;28;20241;-66
2022/06/26 00:10:20;;;;;;;10.15;8.82;;;;;;;23.30;55.87;101093.38;5034452;28;20041;-66
2022/06/26 00:12:51;;;;;;;9.35;8.30;;;;;;;23.27;56.03;101080.91;5034140;28;20060;-66
2022/06/26 00:15:18;;;;;;;10.15;9.10;;;;;;;23.28;56.37;101087.25;5034145;28;20249;-66
2022/06/26 00:17:45;;;;;;;9.68;8.68;;;;;;;23.29;56.37;101092.53;5034131;28;20045;-66
2022/06/26 00:20:11;;;;;;;10.43;9.43;;;;;;;23.31;56.49;101092.34;5033776;28;20404;-66
2022/06/26 00:22:40;;;;;;;10.23;9.02;;;;;;;23.33;56.78;101096.63;5048995;28;20041;-65
2022/06/26 00:25:08;;;;;;;9.65;8.75;;;;;;;23.33;56.87;101104.84;5053970;28;20059;-66
2022/06/26 00:27:35;;;;;;;8.80;8.00;;;;;;;23.32;56.48;101099.53;5035228;28;20044;-66
2022/06/26 00:30:03;;;;;;;9.10;8.23;;;;;;;23.30;56.37;101096.13;5033952;28;20056;-66
2022/06/26 00:32:32;;;;;;;9.93;8.93;;;;;;;23.29;56.31;101089.81;5033880;28;20041;-66
2022/06/26 00:34:59;;;;;;;9.93;8.70;;;;;;;23.27;56.60;101091.88;5032172;28;20041;-66
2022/06/26 00:37:25;;;;;;;11.30;9.32;;;;;;;23.27;56.63;101091.03;5034299;28;20390;-65
2022/06/26 00:39:52;;;;;;;9.85;8.85;;;;;;;23.24;56.86;101092.25;5036681;28;20044;-66
2022/06/26 00:42:20;;;;;;;9.73;8.73;;;;;;;23.21;56.90;101095.34;5053666;28;20037;-66
2022/06/26 00:44:47;;;;;;;10.07;9.18;;;;;;;23.19;56.96;101100.16;5053787;28;20132;-66
2022/06/26 00:47:14;;;;;;;9.50;8.48;;;;;;;23.15;57.03;101101.56;5051340;28;20067;-65
2022/06/26 00:49:40;;;;;;;10.48;9.32;;;;;;;23.10;57.04;101104.03;5052152;28;20053;-65
2022/06/26 00:52:07;;;;;;;10.95;9.52;;;;;;;23.05;56.87;101100.97;5052319;28;20044;-66
2022/06/26 00:54:34;;;;;;;10.90;9.77;;;;;;;22.99;57.34;101105.28;5050682;28;20041;-66
2022/06/26 00:57:01;;;;;;;10.60;9.50;;;;;;;22.98;57.22;101124.63;5033593;28;20092;-66
2022/06/26 00:59:28;;;;;;;10.07;9.05;;;;;;;22.97;57.34;101115.56;5033317;28;20056;-66
2022/06/26 01:01:55;;;;;;;10.60;9.43;;;;;;;22.96;57.30;101110.28;5032092;28;20084;-66
2022/06/26 01:04:23;;;;;;;10.40;9.38;;;;;;;22.93;57.68;101107.91;5034770;28;20045;-65
2022/06/26 01:06:50;;;;;;;12.55;10.10;;;;;;;22.92;57.50;101103.44;5053007;28;20060;-66
2022/06/26 01:09:18;;;;;;;12.50;10.15;;;;;;;22.94;57.44;101110.44;5051998;28;20041;-66
2022/06/26 01:11:45;;;;;;;11.68;10.32;;;;;;;22.94;57.81;101121.41;5034344;28;20083;-65
2022/06/26 01:14:14;;;;;;;11.52;10.00;;;;;;;22.95;57.75;101116.78;5032124;28;20056;-65
2022/06/26 01:16:42;;;;;;;12.35;10.50;;;;;;;22.98;57.68;101110.94;5031767;28;20038;-64
2022/06/26 01:19:13;;;;;;;12.52;11.32;;;;;;;23.02;57.94;101115.00;5033379;28;20046;-65
2022/06/26 01:21:40;;;;;;;13.95;10.50;;;;;;;23.02;57.75;101120.50;5050913;28;20080;-65
2022/06/26 01:24:07;;;;;;;11.32;9.95;;;;;;;23.03;57.67;101117.56;5047513;28;20046;-65
2022/06/26 01:26:35;;;;;;;12.43;10.07;;;;;;;23.04;57.75;101111.09;5033828;28;20068;-66
2022/06/26 01:29:04;;;;;;;13.60;10.73;;;;;;;23.04;58.04;101112.97;5031439;28;20037;-65
2022/06/26 01:31:34;;;;;;;11.27;9.98;;;;;;;23.04;57.73;101118.44;5033550;28;20049;-65
2022/06/26 01:34:09;;;;;;;13.05;10.85;;;;;;;23.04;58.00;101126.66;5031810;28;20046;-65
2022/06/26 01:36:36;;;;;;;10.18;9.27;;;;;;;23.03;57.75;101133.16;5031704;28;20088;-65
2022/06/26 01:39:05;;;;;;;11.15;10.07;;;;;;;23.03;57.44;101144.13;5044825;28;20045;-65
2022/06/26 01:41:32;;;;;;;11.63;9.20;;;;;;;22.98;57.60;101139.19;5051463;28;20037;-66
2022/06/26 01:43:59;;;;;;;10.45;9.45;;;;;;;22.95;57.62;101138.69;5051258;28;20063;-66
2022/06/26 01:46:26;;;;;;;10.88;9.73;;;;;;;22.89;57.37;101136.69;5051625;28;20037;-65
2022/06/26 01:48:54;;;;;;;10.70;9.45;;;;;;;22.85;57.44;101138.09;5051146;28;20483;-65
2022/06/26 01:51:21;;;;;;;11.23;10.02;;;;;;;22.80;57.61;101127.69;5049398;28;20052;-65
2022/06/26 01:53:53;;;;;;;13.18;9.52;;;;;;;22.75;57.52;101133.66;5031792;28;20041;-65
2022/06/26 01:56:20;;;;;;;10.68;9.57;;;;;;;22.68;57.68;101132.69;5032377;28;20083;-65
2022/06/26 01:58:48;;;;;;;11.80;10.10;;;;;;;22.63;57.51;101134.25;5031086;28;20392;-65
2022/06/26 02:01:19;;;;;;;11.65;10.35;;;;;;;22.57;57.82;101133.09;5031912;28;20096;-65
2022/06/26 02:03:47;;;;;;;11.15;10.05;;;;;;;22.50;57.79;101130.22;5064086;28;20049;-65
2022/06/26 02:06:14;;;;;;;12.35;10.07;;;;;;;22.46;57.83;101125.28;5033278;28;20037;-65
2022/06/26 02:08:40;;;;;;;11.48;10.38;;;;;;;22.45;58.26;101129.91;5030838;28;20046;-65
2022/06/26 02:13:56;;;;;;;13.18;10.93;;;;;;;22.40;58.00;101117.81;5030685;28;20077;-65
2022/06/26 02:16:31;;;;;;;14.25;11.38;;;;;;;22.39;58.07;101113.34;5030660;28;20041;-65
2022/06/26 02:18:59;;;;;;;13.93;11.15;;;;;;;22.38;58.33;101119.88;5030258;28;20099;-65
2022/06/26 02:21:28;;;;;;;13.63;11.20;;;;;;;22.39;58.21;101124.31;5050374;28;20037;-65
2022/06/26 02:23:57;;;;;;;14.75;11.75;;;;;;;22.38;58.54;101122.59;5051639;28;20053;-65
2022/06/26 02:26:23;;;;;;;12.93;11.38;;;;;;;22.35;58.42;101128.44;5050426;28;20053;-65
2022/06/26 02:28:54;;;;;;;16.48;12.35;;;;;;;22.31;58.45;101130.69;5051701;28;20120;-65
2022/06/26 02:31:21;;;;;;;16.27;12.05;;;;;;;22.31;58.55;101132.56;5051635;28;20045;-65
2022/06/26 02:33:49;;;;;;;14.35;12.52;;;;;;;22.29;58.44;101129.97;5041779;28;20041;-65
2022/06/26 02:36:16;;;;;;;13.93;11.77;;;;;;;22.27;58.53;101126.56;5031497;28;20057;-65
2022/06/26 02:38:42;;;;;;;15.07;13.32;;;;;;;22.26;58.42;101118.53;5030402;28;20042;-66
2022/06/26 02:41:09;;;;;;;14.63;12.45;;;;;;;22.24;58.69;101131.53;5030376;28;20042;-64
2022/06/26 02:43:38;;;;;;;14.90;13.40;;;;;;;22.21;58.92;101130.00;5030151;28;20136;-65
2022/06/26 02:46:07;;;;;;;16.42;13.10;;;;;;;22.20;58.83;101133.78;5029812;28;20107;-66
2022/06/26 02:48:34;;;;;;;16.48;13.63;;;;;;;22.18;58.84;101133.94;5046244;28;20581;-65
2022/06/26 02:51:00;;;;;;;17.10;14.05;;;;;;;22.20;59.26;101140.09;5050148;28;20045;-65
2022/06/26 02:53:27;;;;;;;18.52;14.07;;;;;;;22.21;59.00;101143.69;5051644;28;20456;-65
2022/06/26 02:55:55;;;;;;;17.70;14.38;;;;;;;22.22;59.26;101150.88;5042569;28;20144;-65
2022/06/26 02:58:21;;;;;;;15.60;14.00;;;;;;;22.23;59.27;101151.72;5029798;28;20456;-65
2022/06/26 03:00:54;;;;;;;17.17;14.85;;;;;;;22.24;59.26;101153.41;5033439;28;20045;-64
2022/06/26 03:03:23;;;;;;;21.90;14.25;;;;;;;22.23;58.94;101158.03;5049793;28;20519;-65
2022/06/26 03:05:51;;;;;;;18.83;15.85;;;;;;;22.24;59.15;101158.88;5049813;28;20080;-64
2022/06/26 03:08:22;;;;;;;23.98;15.88;;;;;;;22.24;59.01;101164.38;5050580;28;20051;-65
2022/06/26 03:10:50;;;;;;;18.02;15.55;;;;;;;22.26;59.43;101171.38;5051008;28;20128;-65
2022/06/26 03:13:17;;;;;;;18.35;15.45;;;;;;;22.27;59.53;101173.06;5048652;28;20514;-65
2022/06/26 03:15:45;;;;;;;16.65;14.95;;;;;;;22.28;59.39;101177.50;5047107;28;20044;-66
2022/06/26 03:18:14;;;;;;;18.25;14.82;;;;;;;22.30;59.27;101180.09;5049684;28;20048;-65
2022/06/26 03:20:43;;;;;;;16.85;14.43;;;;;;;22.30;59.27;101174.63;5049671;28;20037;-65
2022/06/26 03:23:15;;;;;;;19.48;15.45;;;;;;;22.29;59.22;101176.47;5049505;28;20542;-66
2022/06/26 03:25:42;;;;;;;19.75;15.55;;;;;;;22.32;59.24;101178.03;5049354;28;20037;-65
2022/06/26 03:28:09;;;;;;;21.25;16.45;;;;;;;22.30;59.45;101185.56;5046909;28;20087;-65
2022/06/26 03:30:39;;;;;;;17.67;15.55;;;;;;;22.30;59.20;101186.44;5049619;28;20507;-65
2022/06/26 03:33:08;;;;;;;20.65;15.60;;;;;;;22.31;59.47;101190.03;5049538;28;20048;-65
2022/06/26 03:35:35;;;;;;;18.55;15.65;;;;;;;22.29;59.35;101194.78;5049518;28;20126;-65
2022/06/26 03:38:03;;;;;;;19.60;14.85;;;;;;;22.25;59.44;101193.44;5049506;28;20057;-65
2022/06/26 03:40:31;;;;;;;20.80;15.25;;;;;;;22.23;59.22;101200.97;5048526;28;20052;-65
2022/06/26 03:42:59;;;;;;;17.63;14.35;;;;;;;22.19;59.42;101206.78;5048889;28;20128;-65
2022/06/26 03:45:28;;;;;;;18.55;14.75;;;;;;;22.17;58.93;101214.31;5049766;28;20037;-65
2022/06/26 03:47:54;;;;;;;17.92;14.60;;;;;;;22.15;59.36;101210.91;5050006;28;20052;-65
2022/06/26 03:50:21;;;;;;;16.75;13.48;;;;;;;22.14;59.02;101222.03;5049530;28;20041;-65
2022/06/26 03:52:49;;;;;;;14.10;11.65;;;;;;;22.09;59.11;101221.69;5049486;28;20041;-65
2022/06/26 03:55:17;;;;;;;14.25;12.02;;;;;;;22.05;58.92;101228.53;5041190;28;20038;-65
2022/06/26 03:57:44;;;;;;;14.07;11.50;;;;;;;22.01;58.95;101238.94;5029487;28;20099;-65
2022/06/26 04:00:11;;;;;;;15.15;11.88;;;;;;;22.00;58.77;101239.13;5029567;28;20033;-65
2022/06/26 04:02:47;;;;;;;14.38;11.38;;;;;;;21.95;58.70;101247.84;5031453;28;20072;-64
2022/06/26 04:05:19;;;;;;;12.43;11.13;;;;;;;21.93;58.41;101255.38;5029804;28;20121;-65
2022/06/26 04:07:47;;;;;;;14.93;11.52;;;;;;;21.92;58.58;101253.66;5029238;28;20042;-65
2022/06/26 04:10:19;;;;;;;14.50;11.93;;;;;;;21.88;58.29;101253.16;5032680;28;20064;-66
2022/06/26 04:12:48;;;;;;;15.85;11.60;;;;;;;21.80;58.46;101246.84;5033029;28;20037;-65
2022/06/26 04:15:15;;;;;;;17.50;12.20;;;;;;;21.75;58.50;101249.22;5034219;28;20038;-64
2022/06/26 04:17:42;;;;;;;14.85;11.93;;;;;;;21.74;58.17;101250.25;5043352;28;20475;-65
2022/06/26 04:20:13;;;;;;;15.02;11.45;;;;;;;21.73;58.45;101245.81;5052887;28;20060;-66
2022/06/26 04:22:41;;;;;;;15.80;12.25;;;;;;;21.68;58.32;101245.47;5048098;28;20075;-65
2022/06/26 04:25:12;;;;;;;14.13;11.07;;;;;;;21.63;58.39;101242.41;5032665;28;20446;-65
2022/06/26 04:27:38;;;;;;;12.23;10.90;;;;;;;21.60;58.16;101243.59;5032675;28;20049;-66
2022/06/26 04:30:06;;;;;;;16.02;11.80;;;;;;;21.52;57.97;101241.69;5032872;28;20041;-66
2022/06/26 04:32:34;;;;;;;15.15;11.30;;;;;;;21.48;58.21;101242.19;5032931;28;20037;-65
2022/06/26 04:35:06;;;;;;;13.55;10.88;;;;;;;21.46;58.20;101244.25;5033286;28;20041;-65
2022/06/26 04:37:34;;;;;;;12.23;10.48;;;;;;;21.46;58.41;101252.44;5034598;28;20048;-66
2022/06/26 04:40:02;;;;;;;12.55;10.23;;;;;;;21.46;58.65;101266.97;5034095;28;20130;-65
2022/06/26 04:42:32;;;;;;;13.32;9.68;;;;;;;21.47;58.56;101262.34;5032889;28;20077;-66
2022/06/26 04:44:59;;;;;;;15.23;10.27;;;;;;;21.46;58.42;101253.31;5032171;28;20037;-65
2022/06/26 04:47:25;;;;;;;12.48;9.80;;;;;;;21.47;58.59;101257.75;5032164;28;20132;-66
2022/06/26 04:50:04;;;;;;;15.63;9.38;;;;;;;21.49;58.45;101273.97;5032127;28;20045;-65
2022/06/26 04:52:34;;;;;;;11.10;9.35;;;;;;;21.50;58.75;101284.72;5033539;28;20064;-65
2022/06/26 04:55:01;;;;;;;12.90;8.52;;;;;;;21.46;58.15;101283.38;5032075;28;20049;-65
2022/06/26 04:57:29;;;;;;;13.85;8.75;;;;;;;21.39;58.46;101290.53;5031790;28;20230;-65
2022/06/26 04:59:57;;;;;;;12.90;9.05;;;;;;;21.37;58.70;101287.09;5031386;28;20587;-65
2022/06/26 05:02:28;;;;;;;13.73;9.10;;;;;;;21.38;58.56;101288.81;5031626;28;20033;-66
2022/06/26 05:05:15;;;;;;;10.93;8.85;;;;;;;21.36;58.40;101290.00;5029465;28;20492;-65
2022/06/26 05:08:07;;;;;;;11.65;9.20;;;;;;;21.30;58.73;101286.06;5030677;28;20052;-65
2022/06/26 05:10:34;;;;;;;14.15;9.38;;;;;;;21.29;58.73;101291.72;5031557;28;20052;-65
2022/06/26 05:13:02;;;;;;;12.30;8.35;;;;;;;21.29;58.55;101295.28;5032786;28;20048;-65
2022/06/26 05:15:52;;;;;;;11.63;8.30;;;;;;;21.32;58.83;101303.16;5017825;28;20048;-65
2022/06/26 05:18:18;;;;;;;10.60;7.95;;;;;;;21.33;58.90;101296.66;5031201;28;20044;-65
2022/06/26 05:20:45;;;;;;;13.60;9.00;;;;;;;21.32;58.65;101296.84;5031343;28;20037;-65
2022/06/26 05:23:14;;;;;;;11.45;8.13;;;;;;;21.31;59.14;101297.84;5031259;28;20399;-65
2022/06/26 05:25:47;;;;;;;10.50;7.93;;;;;;;21.27;58.45;101300.06;5028633;28;20052;-65
2022/06/26 05:28:14;;;;;;;11.32;7.80;;;;;;;21.21;58.66;101306.16;5032421;28;20033;-65
2022/06/26 05:30:41;;;;;;;12.43;7.93;;;;;;;21.18;58.78;101303.78;5031083;28;20045;-65
2022/06/26 05:33:10;;;;;;;9.70;7.68;;;;;;;21.19;58.93;101289.09;5032825;28;20041;-65
2022/06/26 05:35:37;;;;;;;10.45;8.00;;;;;;;21.21;59.09;101289.78;5032238;28;20052;-65
2022/06/26 05:38:04;;;;;;;13.00;8.35;;;;;;;21.22;59.29;101295.09;5031320;28;20092;-66
2022/06/26 05:40:31;;;;;;;9.85;8.48;;;;;;;21.24;59.12;101297.66;5032768;28;20044;-66
2022/06/26 05:43:02;;;;;;;11.95;8.43;;;;;;;21.26;59.27;101303.81;5032598;28;20037;-66
2022/06/26 05:45:29;;;;;;;8.98;7.68;;;;;;;21.30;58.91;101305.19;5032522;28;20132;-65
2022/06/26 05:48:14;;;;;;;10.60;7.22;;;;;;;21.33;59.21;101313.06;5032869;28;20107;-66
2022/06/26 05:50:48;;;;;;;11.95;7.95;;;;;;;21.33;59.04;101317.66;5031283;28;20490;-66
2022/06/26 05:53:34;;;;;;;10.30;7.22;;;;;;;21.34;59.19;101330.31;5031667;28;20049;-66
2022/06/26 05:56:05;;;;;;;9.57;7.20;;;;;;;21.38;59.22;101331.69;5030995;28;20046;-66
2022/06/26 05:58:48;;;;;;;12.50;7.63;;;;;;;21.43;59.28;101330.16;5064341;28;20145;-65
2022/06/26 06:01:28;;;;;;;8.25;6.07;;;;;;;21.52;58.90;101325.56;5047936;28;20045;-66
2022/06/26 06:04:06;;;;;;;10.45;7.03;;;;;;;21.55;59.04;101333.41;5031003;28;20052;-66
2022/06/26 06:06:36;;;;;;;9.95;6.32;;;;;;;21.60;58.55;101341.16;5030738;28;20045;-65
2022/06/26 06:09:05;;;;;;;8.77;6.43;;;;;;;21.68;58.88;101352.09;5030762;28;20100;-65
2022/06/26 06:11:32;;;;;;;9.13;7.13;;;;;;;21.81;59.01;101366.13;5031955;28;20137;-65
2022/06/26 06:14:00;;;;;;;9.75;6.78;;;;;;;21.93;58.73;101367.50;5037067;28;20052;-65
2022/06/26 06:16:28;;;;;;;10.52;7.53;;;;;;;22.08;58.93;101357.59;5038172;28;20614;-65
2022/06/26 06:18:54;;;;;;;11.15;6.60;;;;;;;22.22;58.57;101366.16;5030138;28;20041;-65
2022/06/26 06:21:25;;;;;;;8.85;6.10;;;;;;;22.31;58.32;101365.16;5028086;28;20040;-65
2022/06/26 06:23:52;;;;;;;11.52;6.40;;;;;;;22.37;58.04;101361.72;5030251;28;20078;-65
2022/06/26 06:26:19;;;;;;;8.50;5.93;;;;;;;22.38;57.43;101366.16;5031676;28;20095;-65
2022/06/26 06:28:46;;;;;;;9.02;6.10;;;;;;;22.41;57.41;101380.34;5029785;28;20133;-65
2022/06/26 06:31:14;;;;;;;11.38;6.10;;;;;;;22.52;57.75;101373.66;5029778;28;20503;-66
2022/06/26 06:33:41;;;;;;;10.52;5.47;;;;;;;22.67;57.54;101379.28;5029601;28;20403;-65
2022/06/26 06:36:10;;;;;;;11.38;6.20;;;;;;;22.82;57.47;101372.94;5030339;28;20043;-65
2022/06/26 06:38:36;;;;;;;8.63;5.53;;;;;;;22.90;57.11;101358.34;5029950;28;20053;-65
2022/06/26 06:41:07;;;;;;;9.45;5.53;;;;;;;22.97;57.05;101372.19;5031297;28;20504;-65
2022/06/26 06:43:55;;;;;;;7.55;5.50;;;;;;;23.01;56.50;101379.88;5027354;28;20053;-65
2022/06/26 06:46:44;;;;;;;7.82;5.80;;;;;;;22.99;56.29;101381.09;5028756;28;20042;-65
2022/06/26 06:49:19;;;;;;;11.13;5.20;;;;;;;22.94;56.04;101369.81;5028644;28;20492;-63
2022/06/26 06:51:49;;;;;;;8.63;5.30;;;;;;;22.95;56.09;101360.56;5031126;28;20049;-63
2022/06/26 06:54:17;;;;;;;6.05;4.53;;;;;;;23.03;55.98;101380.56;5031560;28;20034;-63
2022/06/26 06:56:45;;;;;;;8.05;4.50;;;;;;;23.14;56.00;101379.34;5038805;28;20041;-63
2022/06/26 06:59:13;;;;;;;9.88;4.95;;;;;;;23.18;55.66;101383.44;5051252;28;20041;-63
2022/06/26 07:01:42;;;;;;;6.82;4.45;;;;;;;23.28;55.92;101391.44;5049786;28;20506;-63
2022/06/26 07:04:11;;;;;;;8.10;5.25;;;;;;;23.41;55.75;101395.31;5050156;28;20135;-63
2022/06/26 07:06:38;;;;;;;10.50;5.65;;;;;;;23.48;55.41;101397.34;5049925;28;20087;-63
2022/06/26 07:09:05;;;;;;;11.43;5.70;;;;;;;23.51;54.96;101397.81;5033404;28;20041;-63
2022/06/26 07:11:32;;;;;;;10.27;4.78;;;;;;;23.59;55.33;101413.41;5049887;28;20078;-63
2022/06/26 07:14:00;;;;;;;8.27;5.10;;;;;;;23.77;54.95;101406.59;5048842;28;20090;-63
2022/06/26 07:16:27;;;;;;;8.45;4.30;;;;;;;23.95;54.72;101419.22;5051864;28;20033;-63
2022/06/26 07:18:54;;;;;;;9.23;4.93;;;;;;;24.10;54.54;101414.63;5049585;28;20056;-63
2022/06/26 07:21:21;;;;;;;6.15;4.43;;;;;;;24.28;54.42;101423.44;5049051;28;20406;-64
2022/06/26 07:23:49;;;;;;;9.43;4.68;;;;;;;24.42;54.11;101427.25;5049853;28;20053;-63
2022/06/26 07:26:22;;;;;;;8.45;4.63;;;;;;;24.51;53.87;101431.63;5049929;28;20060;-63
2022/06/26 07:28:50;;;;;;;5.13;4.13;;;;;;;24.66;53.48;101426.19;5047897;28;20049;-63
2022/06/26 07:31:18;;;;;;;7.00;3.97;;;;;;;24.76;53.22;101417.69;5049651;28;20411;-63
2022/06/26 07:36:35;;;;;;;8.68;4.07;;;;;;;24.88;52.93;101432.66;5049510;28;20067;-63
2022/06/26 07:39:04;;;;;;;7.53;4.07;;;;;;;24.86;52.60;101435.59;5049510;28;20102;-63
2022/06/26 07:41:31;;;;;;;5.30;3.60;;;;;;;24.81;52.30;101431.72;5049384;28;20131;-65
2022/06/26 07:44:01;;;;;;;5.70;3.42;;;;;;;24.76;52.26;101425.94;5051407;28;20045;-66
2022/06/26 07:46:28;;;;;;;5.65;3.30;;;;;;;24.83;52.03;101419.50;5051443;28;20037;-67
2022/06/26 07:48:55;;;;;;;5.97;3.25;;;;;;;24.90;52.10;101427.84;5053304;28;20139;-67
2022/06/26 07:51:22;;;;;;;5.05;3.15;;;;;;;24.95;51.84;101423.47;5051656;28;20048;-66
2022/06/26 07:53:50;;;;;;;5.72;3.15;;;;;;;24.97;51.73;101429.66;5037322;28;20224;-67
2022/06/26 07:56:17;;;;;;;5.40;3.20;;;;;;;25.04;51.67;101432.50;5034262;28;20081;-66
2022/06/26 07:58:43;;;;;;;5.45;3.38;;;;;;;25.09;51.04;101438.28;5034494;28;20037;-66
2022/06/26 08:01:10;;;;;;;7.90;3.47;;;;;;;25.14;51.23;101446.81;5034731;28;20041;-66
2022/06/26 08:03:44;;;;;;;4.22;3.10;;;;;;;25.17;51.22;101432.69;5034593;28;20462;-66
2022/06/26 08:06:11;;;;;;;5.82;3.45;;;;;;;25.16;50.66;101431.00;5034462;28;20045;-66
2022/06/26 08:08:38;;;;;;;6.32;3.35;;;;;;;25.14;50.36;101427.59;5034366;28;20147;-66
2022/06/26 08:11:05;;;;;;;5.97;3.70;;;;;;;25.12;50.67;101437.91;5034290;28;20068;-66
2022/06/26 08:13:32;;;;;;;5.13;3.60;;;;;;;25.14;50.66;101448.72;5034406;28;20069;-66
2022/06/26 08:15:59;;;;;;;5.63;3.05;;;;;;;25.18;50.66;101444.56;5034144;28;20046;-66
2022/06/26 08:18:26;;;;;;;8.20;3.70;;;;;;;25.19;50.51;101452.59;5034224;28;20148;-66
2022/06/26 08:20:53;;;;;;;6.57;3.22;;;;;;;25.15;50.36;101456.78;5034303;28;20049;-66
2022/06/26 08:23:20;;;;;;;5.30;3.35;;;;;;;25.10;50.09;101455.63;5032835;28;20072;-66
2022/06/26 08:25:47;;;;;;;5.07;3.63;;;;;;;25.03;50.42;101461.91;5034643;28;20057;-66
2022/06/26 08:28:14;;;;;;;5.97;3.60;;;;;;;25.07;50.18;101458.75;5033861;28;20056;-66
2022/06/26 08:30:40;;;;;;;8.38;3.72;;;;;;;25.07;50.38;101458.75;5035256;28;20064;-65
2022/06/26 08:33:09;;;;;;;6.05;3.38;;;;;;;25.08;50.46;101461.31;5045801;28;20505;-65
2022/06/26 08:35:36;;;;;;;6.78;3.30;;;;;;;25.08;50.40;101466.81;5053796;28;20043;-65
2022/06/26 08:38:02;;;;;;;5.18;2.95;;;;;;;25.04;50.51;101465.50;5053777;28;20299;-65
2022/06/26 08:40:29;;;;;;;5.53;3.50;;;;;;;25.05;50.81;101466.34;5053259;28;20045;-66
2022/06/26 08:42:56;;;;;;;5.28;2.92;;;;;;;25.08;50.39;101464.06;5051594;28;20606;-66
2022/06/26 08:45:22;;;;;;;3.60;2.70;;;;;;;25.05;50.07;101458.94;5032902;28;20073;-66
2022/06/26 08:47:52;;;;;;;5.97;3.20;;;;;;;25.05;50.00;101474.59;5048641;28;20044;-67
2022/06/26 08:50:21;;;;;;;4.22;3.35;;;;;;;25.06;49.90;101463.41;5053428;28;20132;-67
2022/06/26 08:52:53;;;;;;;5.40;3.40;;;;;;;25.05;49.83;101461.69;5042778;28;20040;-65
2022/06/26 08:55:21;;;;;;;8.45;3.50;;;;;;;25.08;49.70;101468.72;5033003;28;20132;-64
2022/06/26 08:57:48;;;;;;;5.93;3.28;;;;;;;25.14;49.73;101484.44;5031807;28;20104;-64
2022/06/26 09:00:16;;;;;;;5.82;3.53;;;;;;;25.20;49.63;101484.56;5033534;28;20468;-65
2022/06/26 09:02:47;;;;;;;6.50;3.20;;;;;;;25.23;49.54;101484.16;5033632;28;20128;-64
2022/06/26 09:05:13;;;;;;;4.43;2.90;;;;;;;25.24;49.56;101479.53;5034176;28;20037;-64
2022/06/26 09:07:53;;;;;;;5.13;2.88;;;;;;;25.24;49.71;101477.63;5034236;28;20410;-65
2022/06/26 09:10:20;;;;;;;8.18;3.00;;;;;;;25.20;49.63;101481.81;5034159;28;20034;-64
2022/06/26 09:12:56;;;;;;;4.63;3.08;;;;;;;25.16;49.64;101469.47;5037121;28;20116;-65
2022/06/26 09:15:24;;;;;;;7.82;3.20;;;;;;;25.16;49.78;101469.47;5034206;28;20124;-64
2022/06/26 09:18:05;;;;;;;6.70;3.33;;;;;;;25.14;49.70;101471.56;5033975;28;20115;-64
2022/06/26 09:20:35;;;;;;;11.00;3.50;;;;;;;25.18;49.87;101472.03;5032608;28;20047;-64
2022/06/26 09:23:06;;;;;;;4.65;3.38;;;;;;;25.18;49.76;101463.78;5033143;28;20095;-64
2022/06/26 09:25:38;;;;;;;4.85;3.00;;;;;;;25.14;49.08;101457.81;5064555;28;20084;-64
2022/06/26 09:28:13;;;;;;;5.70;2.80;;;;;;;25.03;49.00;101470.13;5040531;28;20059;-64
2022/06/26 09:31:03;;;;;;;4.90;2.45;;;;;;;24.95;49.27;101475.69;5051385;28;20140;-64
2022/06/26 09:33:33;;;;;;;7.40;2.63;;;;;;;24.95;49.38;101472.94;5040308;28;20084;-64
2022/06/26 09:36:02;;;;;;;4.30;2.55;;;;;;;24.98;49.58;101469.00;5033523;28;20038;-64
2022/06/26 09:38:31;;;;;;;5.85;2.88;;;;;;;25.00;49.63;101472.41;5021828;28;20098;-64
2022/06/26 09:41:01;;;;;;;5.53;3.05;;;;;;;25.05;49.42;101471.84;5052810;28;20075;-64
2022/06/26 09:43:33;;;;;;;6.28;3.38;;;;;;;25.08;49.68;101479.72;5051910;28;20143;-64
2022/06/26 09:46:07;;;;;;;4.25;3.22;;;;;;;25.14;49.66;101476.22;5039401;28;20123;-64
2022/06/26 09:48:35;;;;;;;4.18;2.95;;;;;;;25.18;49.41;101480.28;5049913;28;20118;-64
2022/06/26 09:51:05;;;;;;;5.45;2.72;;;;;;;25.21;49.51;101491.75;5051786;28;20086;-64
2022/06/26 09:53:32;;;;;;;3.85;3.00;;;;;;;25.25;49.34;101490.34;5051160;28;20057;-65
2022/06/26 09:55:59;;;;;;;6.30;3.38;;;;;;;25.26;49.57;101491.19;5050022;28;20303;-64
2022/06/26 09:58:27;;;;;;;5.50;3.20;;;;;;;25.24;49.31;101491.38;5037286;28;20049;-66
2022/06/26 10:06:29;;;;;;;4.70;2.60;;;;;;;25.14;49.09;101493.56;5031584;28;20048;-66
2022/06/26 10:08:57;;;;;;;4.68;3.03;;;;;;;25.08;48.78;101504.44;5032929;28;20137;-67
2022/06/26 10:11:33;;;;;;;3.83;2.88;;;;;;;25.01;49.40;101496.09;5032771;28;20033;-68
2022/06/26 10:14:18;;;;;;;4.80;3.25;;;;;;;25.00;49.32;101513.63;5051862;28;20041;-67
2022/06/26 10:16:53;;;;;;;5.38;3.00;;;;;;;25.03;49.70;101505.00;5049969;28;20083;-67
2022/06/26 10:19:43;;;;;;;5.38;3.53;;;;;;;25.01;49.55;101510.69;5051879;28;20363;-65
2022/06/26 10:22:11;;;;;;;5.50;3.58;;;;;;;25.01;49.42;101518.94;5051553;28;20102;-66
2022/06/26 10:24:56;;;;;;;4.25;3.85;;;;;;;24.95;49.87;101519.66;5052049;28;20509;-66
2022/06/26 10:27:28;;;;;;;4.07;2.92;;;;;;;24.94;49.64;101528.09;5051776;28;20091;-67
2022/06/26 10:30:17;;;;;;;5.65;2.45;;;;;;;24.88;49.25;101534.31;5051696;28;20045;-66
2022/06/26 10:32:44;;;;;;;5.38;2.70;;;;;;;24.83;49.27;101523.03;5049859;28;20044;-66
2022/06/26 10:35:13;;;;;;;5.45;2.80;;;;;;;24.79;49.14;101519.81;5051442;28;20095;-66
2022/06/26 10:37:46;;;;;;;6.97;3.10;;;;;;;24.81;49.58;101536.97;5051354;28;20037;-66
2022/06/26 10:40:14;;;;;;;4.75;2.67;;;;;;;24.86;49.75;101528.16;5051482;28;20084;-67
2022/06/26 10:42:54;;;;;;;5.07;2.50;;;;;;;24.90;49.67;101522.09;5051723;28;20037;-66
2022/06/26 10:45:27;;;;;;;6.00;2.78;;;;;;;24.92;49.59;101532.91;5051639;28;20049;-66
2022/06/26 10:47:57;;;;;;;5.65;2.63;;;;;;;24.94;49.72;101525.34;5051542;28;20167;-66
2022/06/26 10:50:26;;;;;;;5.85;2.58;;;;;;;24.95;49.83;101521.56;5051853;28;20052;-66
2022/06/26 10:53:22;;;;;;;3.65;2.88;;;;;;;24.92;49.82;101527.41;5051645;28;20053;-66
2022/06/26 10:56:04;;;;;;;5.32;2.20;;;;;;;24.89;49.93;101534.13;5051388;28;20044;-66
2022/06/26 10:58:35;;;;;;;6.35;2.80;;;;;;;24.89;49.89;101534.13;5051557;28;20095;-66
2022/06/26 11:01:04;;;;;;;4.80;2.70;;;;;;;24.90;50.44;101540.50;5051581;28;20041;-66
2022/06/26 11:03:32;;;;;;;7.63;3.22;;;;;;;24.91;50.06;101533.97;5051366;28;20441;-66
2022/06/26 11:06:02;;;;;;;5.75;2.70;;;;;;;24.87;49.96;101535.38;5051023;28;20044;-67
2022/06/26 11:08:30;;;;;;;5.60;2.90;;;;;;;24.86;50.04;101544.66;5039816;28;20045;-67
2022/06/26 11:11:06;;;;;;;4.25;2.97;;;;;;;24.91;50.55;101533.97;5031306;28;20072;-66
2022/06/26 11:13:35;;;;;;;5.07;3.33;;;;;;;24.99;50.54;101536.66;5031780;28;20038;-67
2022/06/26 11:16:03;;;;;;;3.65;2.83;;;;;;;25.01;50.70;101537.31;5031504;28;20116;-67
2022/06/26 11:18:35;;;;;;;3.42;2.67;;;;;;;25.01;50.58;101532.69;5032813;28;20080;-67
2022/06/26 11:21:03;;;;;;;5.13;3.22;;;;;;;25.00;50.56;101527.38;5036370;28;20092;-67
2022/06/26 11:23:38;;;;;;;6.35;3.40;;;;;;;24.97;50.23;101531.34;5036130;28;20056;-66
2022/06/26 11:26:08;;;;;;;3.17;2.65;;;;;;;24.92;50.28;101527.41;5035278;28;20038;-67
2022/06/26 11:28:40;;;;;;;6.65;3.35;;;;;;;24.87;50.43;101527.97;5034810;28;20045;-67
2022/06/26 11:31:18;;;;;;;5.25;3.35;;;;;;;24.87;50.42;101524.38;5024435;28;20044;-67
2022/06/26 11:33:45;;;;;;;7.05;4.22;;;;;;;24.86;50.64;101518.03;5038540;28;20053;-67
2022/06/26 11:36:14;;;;;;;5.63;3.55;;;;;;;24.85;50.40;101510.81;5035092;28;20041;-66
2022/06/26 11:38:54;;;;;;;5.05;2.90;;;;;;;24.82;50.23;101505.69;5034949;28;20037;-67
2022/06/26 11:41:23;;;;;;;5.15;2.60;;;;;;;24.81;50.43;101505.88;5034991;28;20137;-66